Time;durP1;ratioP1;P1;durP2;ratioP2;P2;SDS_P1;SDS_P2;PMS_P1;PMS_P2;Temp;Humidity;BMP_temperature;BMP_pressure;BME280_temperature;BME280_humidity;BME280_pressure;Samples;Min_cycle;Max_cycle;Signal;HPM_P1;HPM_P2
2021/05/17 00:00:20;;;;;;;;;26.75;24.50;;;;;22.67;57.34;99862.13;4866747;29;8871;-76
2021/05/17 00:03:17;;;;;;;;;21.00;21.00;;;;;22.54;58.67;99872.44;4880806;29;8880;-74
2021/05/17 00:06:13;;;;;;;;;16.00;16.00;;;;;22.60;59.31;99927.09;4879242;29;8867;-76
2021/05/17 00:09:09;;;;;;;;;15.25;15.25;;;;;22.64;60.36;99916.56;4880457;29;8871;-75
2021/05/17 00:12:06;;;;;;;;;15.00;15.00;;;;;22.37;62.37;99854.66;4896694;29;9955;-75
2021/05/17 00:15:06;;;;;;;;;14.00;13.25;;;;;22.34;64.57;99813.28;4897803;29;8857;-76
2021/05/17 00:18:17;;;;;;;;;17.00;15.00;;;;;21.69;70.85;99841.75;4897818;29;8847;-77
2021/05/17 00:21:13;;;;;;;;;14.75;14.75;;;;;21.34;73.49;99849.56;4897607;29;8864;-75
2021/05/17 00:24:11;;;;;;;;;19.50;19.25;;;;;21.21;75.87;99780.22;4897584;29;8869;-75
2021/05/17 00:27:07;;;;;;;;;17.50;17.50;;;;;21.08;77.24;99765.94;4897549;29;8854;-75
2021/05/17 00:30:04;;;;;;;;;20.00;20.00;;;;;21.04;76.92;99766.03;4897329;29;8858;-75
2021/05/17 00:33:01;;;;;;;;;18.75;18.75;;;;;21.10;78.37;99757.91;4898792;29;8885;-75
2021/05/17 00:35:58;;;;;;;;;18.00;18.00;;;;;21.02;78.11;99776.91;4903509;29;9620;-75
2021/05/17 00:38:55;;;;;;;;;21.00;20.25;;;;;21.11;77.50;99779.19;4903588;29;8938;-76
2021/05/17 00:41:50;;;;;;;;;21.50;20.50;;;;;20.97;79.70;99774.56;4903385;29;8847;-75
2021/05/17 00:44:46;;;;;;;;;16.00;16.00;;;;;21.05;79.20;99806.97;4916088;29;8878;-76
2021/05/17 00:47:47;;;;;;;;;15.75;15.75;;;;;;;;4927128;29;8866;-74
2021/05/17 00:50:43;;;;;;;;;19.50;19.50;;;;;20.77;78.88;99777.22;4903249;29;8851;-76
2021/05/17 00:53:40;;;;;;;;;16.75;16.75;;;;;20.74;78.17;99764.03;4915886;29;8977;-76
2021/05/17 00:56:36;;;;;;;;;14.50;14.25;;;;;20.66;80.52;99796.25;4915746;29;9618;-75
2021/05/17 00:59:33;;;;;;;;;18.75;18.75;;;;;20.59;81.27;99829.25;4903160;29;8851;-75
2021/05/17 01:02:29;;;;;;;;;19.75;19.75;;;;;20.58;81.83;99833.28;4926889;29;8855;-75
2021/05/17 01:05:25;;;;;;;;;17.75;17.75;;;;;20.54;82.67;99833.31;4903314;29;8922;-76
2021/05/17 01:08:25;;;;;;;;;17.50;17.50;;;;;20.43;83.41;99813.75;4915783;29;9006;-75
2021/05/17 01:11:25;;;;;;;;;21.00;20.75;;;;;20.60;81.95;99791.53;4915836;29;8863;-75
2021/05/17 01:14:22;;;;;;;;;20.75;20.75;;;;;20.70;82.17;99810.25;4915986;29;8843;-77
2021/05/17 01:17:19;;;;;;;;;20.00;19.50;;;;;20.59;82.36;99801.16;4915503;29;8855;-77
2021/05/17 01:20:16;;;;;;;;;25.00;24.75;;;;;20.34;82.38;99776.19;4902984;29;8982;-76
2021/05/17 01:26:18;;;;;;;;;24.00;24.00;;;;;20.37;82.65;99758.47;4915683;29;8945;-76
2021/05/17 01:29:14;;;;;;;;;28.00;28.00;;;;;20.35;82.46;99760.91;4902831;29;8847;-75
2021/05/17 01:32:11;;;;;;;;;24.50;24.50;;;;;20.29;82.36;99777.41;4903029;29;8926;-77
2021/05/17 01:35:09;;;;;;;;;25.50;24.50;;;;;20.30;82.60;99764.19;4903068;29;8922;-77
2021/05/17 01:38:06;;;;;;;;;19.50;19.25;;;;;20.10;83.00;99769.63;4926335;29;8859;-76
2021/05/17 01:41:11;;;;;;;;;20.75;20.75;;;;;20.04;82.55;99726.41;4915316;29;8847;-75
2021/05/17 01:44:11;;;;;;;;;18.50;18.50;;;;;19.93;81.50;99743.34;4915532;29;8839;-76
2021/05/17 01:47:09;;;;;;;;;20.25;20.25;;;;;19.81;82.68;99739.06;4915469;29;9042;-76
2021/05/17 01:50:07;;;;;;;;;24.25;24.25;;;;;20.01;83.64;99725.22;4918360;29;8847;-76
2021/05/17 01:53:04;;;;;;;;;24.00;24.00;;;;;19.84;84.36;99712.97;4902179;29;8877;-76
2021/05/17 01:56:00;;;;;;;;;19.75;18.25;;;;;19.97;84.09;99685.19;4915435;29;8874;-75
2021/05/17 01:58:56;;;;;;;;;26.00;26.00;;;;;20.10;84.65;99719.91;4914730;29;9021;-77
2021/05/17 02:01:52;;;;;;;;;25.25;25.25;;;;;20.28;84.91;99708.44;4915320;29;8859;-76
2021/05/17 02:04:48;;;;;;;;;33.25;28.50;;;;;20.25;84.97;99701.69;4905719;29;8885;-75
2021/05/17 02:07:44;;;;;;;;;32.50;31.50;;;;;20.33;84.86;99710.81;4919030;29;8891;-76
2021/05/17 02:10:42;;;;;;;;;49.67;41.67;;;;;20.26;84.52;99738.97;4918946;29;9635;-77
2021/05/17 02:13:39;;;;;;;;;45.67;39.00;;;;;20.14;84.61;99737.50;4918698;29;9433;-77
2021/05/17 02:16:35;;;;;;;;;50.33;41.00;;;;;20.12;84.15;99739.13;4918643;29;9400;-77
2021/05/17 02:19:30;;;;;;;;;40.67;36.33;;;;;20.34;83.21;99739.69;4905695;29;9347;-77
2021/05/17 02:22:26;;;;;;;;;56.50;43.75;;;;;20.32;83.32;99736.47;4905710;29;9492;-78
2021/05/17 02:25:25;;;;;;;;;53.50;44.50;;;;;20.56;82.83;99745.84;4881173;29;9887;-78
2021/05/17 02:28:21;;;;;;;;;55.75;46.00;;;;;20.60;82.87;99755.00;4897944;29;9824;-78
2021/05/17 02:31:17;;;;;;;;;47.75;39.75;;;;;20.26;82.80;99755.81;4918457;29;9980;-77
2021/05/17 02:34:13;;;;;;;;;48.67;39.67;;;;;20.33;82.08;99726.84;4918180;29;9711;-77
2021/05/17 02:37:09;;;;;;;;;37.00;34.00;;;;;20.43;82.05;99709.88;4918368;29;9322;-76
2021/05/17 02:40:06;;;;;;;;;41.33;36.67;;;;;20.57;81.13;99697.69;4918188;29;9169;-75
2021/05/17 02:43:07;;;;;;;;;26.67;26.67;;;;;20.33;80.54;99676.31;4918279;29;9108;-77
2021/05/17 02:46:04;;;;;;;;;28.25;28.25;;;;;20.14;81.83;99636.44;4905245;29;9074;-79
2021/05/17 02:49:00;;;;;;;;;28.50;28.00;;;;;20.15;81.63;99673.72;4903384;29;8878;-77
2021/05/17 02:51:58;;;;;;;;;18.25;18.25;;;;;20.44;82.23;99725.53;4886701;29;8986;-78
2021/05/17 02:55:01;;;;;;;;;24.75;24.75;;;;;20.49;81.24;99708.22;4917664;29;9769;-77
2021/05/17 02:58:04;;;;;;;;;24.75;24.75;;;;;20.43;81.30;99743.56;4918234;29;8847;-77
2021/05/17 03:01:06;;;;;;;;;21.25;20.75;;;;;20.66;79.77;99756.13;4909085;29;8853;-76
2021/05/17 03:04:12;;;;;;;;;25.00;21.25;;;;;20.46;81.33;99731.50;4886458;29;8853;-76
2021/05/17 03:07:10;;;;;;;;;22.75;22.75;;;;;20.53;81.28;99720.19;4880120;29;8863;-78
2021/05/17 03:10:07;;;;;;;;;19.25;19.25;;;;;20.48;82.64;99705.84;4896743;29;8913;-76
2021/05/17 03:13:16;;;;;;;;;24.00;24.00;;;;;20.48;81.99;99686.97;4916471;29;8882;-77
2021/05/17 03:16:13;;;;;;;;;22.75;22.50;;;;;20.59;82.14;99694.44;4879201;29;8954;-77
2021/05/17 03:19:10;;;;;;;;;21.00;21.00;;;;;20.59;82.75;99728.13;4880077;29;8859;-80
2021/05/17 03:22:07;;;;;;;;;31.75;30.00;;;;;20.74;80.86;99707.06;4880072;29;9637;-77
2021/05/17 03:25:06;;;;;;;;;50.50;40.00;;;;;20.49;80.62;99676.53;4883513;29;8853;-77
2021/05/17 03:28:02;;;;;;;;;45.33;37.00;;;;;20.41;80.28;99680.63;4880662;29;9667;-75
2021/05/17 03:30:58;;;;;;;;;42.00;37.00;;;;;20.57;79.85;99680.81;4867445;29;10170;-74
2021/05/17 03:33:59;;;;;;;;;53.25;45.00;;;;;20.64;79.19;99677.13;4867541;29;9183;-75
2021/05/17 03:36:54;;;;;;;;;53.50;43.00;;;;;20.52;78.10;99653.19;4879907;29;9748;-74
2021/05/17 03:39:50;;;;;;;;;50.00;41.67;;;;;;;;4883911;29;10562;-74
2021/05/17 03:42:46;;;;;;;;;36.00;31.00;;;;;20.54;77.42;99637.50;4898482;29;9438;-74
2021/05/17 03:45:42;;;;;;;;;37.50;33.00;;;;;20.71;76.92;99643.31;4898189;29;8884;-74
2021/05/17 03:48:41;;;;;;;;;27.50;26.50;;;;;20.94;75.76;99648.94;4909754;29;8878;-75
2021/05/17 03:51:36;;;;;;;;;24.00;23.50;;;;;21.15;75.06;99663.84;4916981;29;8990;-74
2021/05/17 03:54:32;;;;;;;;;21.00;21.00;;;;;21.29;75.19;99667.25;4907499;29;8849;-76
2021/05/17 03:57:29;;;;;;;;;37.67;33.00;;;;;21.34;75.69;99680.81;4915176;29;8847;-76
2021/05/17 04:00:27;;;;;;;;;45.33;39.00;;;;;21.27;77.42;99657.63;4916862;29;9011;-76
2021/05/17 04:03:23;;;;;;;;;39.75;35.25;;;;;21.41;76.56;99634.13;4904405;29;9176;-74
2021/05/17 04:15:25;;;;;;;;;37.00;33.00;;;;;22.09;71.79;99614.69;4915882;29;8922;-74
2021/05/17 04:18:21;;;;;;;;;73.50;58.50;;;;;21.79;69.95;99631.78;4909030;29;9686;-76
2021/05/17 04:21:17;;;;;;;;;63.00;48.00;;;;;21.99;69.85;99626.91;4909709;29;10329;-75
2021/05/17 04:24:12;;;;;;;;;53.33;43.67;;;;;22.15;69.70;99603.66;4887177;29;9662;-74
2021/05/17 04:27:08;;;;;;;;;44.50;36.25;;;;;22.13;68.04;99639.94;4886559;29;9095;-74
2021/05/17 04:30:05;;;;;;;;;48.00;41.00;;;;;22.30;68.86;99629.50;4903231;29;8855;-74
2021/05/17 04:33:01;;;;;;;;;52.33;43.67;;;;;22.36;67.72;99653.09;4899716;29;8855;-72
2021/05/17 04:35:57;;;;;;;;;44.00;37.25;;;;;22.43;67.13;99681.13;4916277;29;9035;-74
2021/05/17 04:38:52;;;;;;;;;39.50;35.00;;;;;22.59;67.25;99720.59;4916140;29;8966;-71
2021/05/17 04:41:48;;;;;;;;;31.50;29.75;;;;;22.61;68.20;99745.50;4903595;29;8859;-72
2021/05/17 04:44:44;;;;;;;;;29.00;26.50;;;;;22.65;68.32;99763.94;4916032;29;8866;-72
2021/05/17 04:47:40;;;;;;;;;27.75;27.50;;;;;22.76;67.80;99774.97;4916133;29;8882;-75
2021/05/17 04:50:36;;;;;;;;;35.25;28.25;;;;;22.89;67.13;99783.59;4915962;29;8954;-75
2021/05/17 04:53:31;;;;;;;;;26.00;25.00;;;;;22.97;65.96;99776.56;4915853;29;8847;-73
2021/05/17 04:56:27;;;;;;;;;33.75;28.25;;;;;23.24;65.71;99767.88;4915629;29;8848;-72
2021/05/17 04:59:23;;;;;;;;;31.50;28.50;;;;;23.58;66.13;99770.25;4907662;29;8858;-70
2021/05/17 05:02:18;;;;;;;;;33.25;25.50;;;;;23.41;63.65;99746.13;4896891;29;8834;-67
2021/05/17 05:05:14;;;;;;;;;34.00;30.00;;;;;23.76;62.98;99747.25;4898744;29;8841;-67
2021/05/17 05:08:10;;;;;;;;;29.00;25.50;;;;;23.86;63.62;99740.53;4896501;29;8864;-67
2021/05/17 05:11:05;;;;;;;;;27.50;25.75;;;;;23.79;62.76;99778.22;4915639;29;9000;-66
2021/05/17 05:14:02;;;;;;;;;20.25;13.00;;;;;23.75;61.71;99825.47;4908402;29;8838;-67
2021/05/17 05:16:57;;;;;;;;;29.00;25.50;;;;;23.98;62.45;99824.50;4896783;29;8852;-67
2021/05/17 05:19:53;;;;;;;;;35.50;25.50;;;;;23.99;59.50;99850.69;4897350;29;8857;-67
2021/05/17 05:22:48;;;;;;;;;30.75;26.25;;;;;23.95;60.74;99831.03;4914101;29;8869;-67
2021/05/17 05:29:12;;;;;;;;;31.50;27.75;;;;;23.60;61.33;99829.91;4890249;29;8850;-67
2021/05/17 05:35:15;;;;;;;;;30.75;26.50;;;;;24.11;61.05;99833.03;4895367;29;8849;-68
2021/05/17 05:38:10;;;;;;;;;19.25;13.75;;;;;23.97;60.77;99845.50;4878642;29;8982;-68
2021/05/17 05:41:06;;;;;;;;;24.75;24.25;;;;;24.01;61.61;99849.03;4881698;29;8979;-68
2021/05/17 05:44:02;;;;;;;;;23.75;22.25;;;;;23.95;60.98;99842.34;4882366;29;8862;-68
2021/05/17 05:46:58;;;;;;;;;28.50;26.00;;;;;24.08;62.26;99860.16;4881525;29;8871;-67
2021/05/17 05:49:53;;;;;;;;;20.25;19.50;;;;;23.69;62.19;99882.91;4881899;29;8832;-67
2021/05/17 05:52:49;;;;;;;;;23.75;21.75;;;;;23.69;63.14;99874.44;4882333;29;8886;-67
2021/05/17 05:55:46;;;;;;;;;24.75;17.00;;;;;23.66;63.37;99866.84;4897384;29;8853;-67
2021/05/17 05:58:42;;;;;;;;;20.00;17.25;;;;;23.44;63.48;99877.81;4899841;29;8960;-68
2021/05/17 06:01:38;;;;;;;;;23.50;19.75;;;;;23.66;63.29;99881.75;4900049;29;8834;-68
2021/05/17 06:04:34;;;;;;;;;22.25;21.00;;;;;23.59;63.58;99871.41;4890806;29;8857;-68
2021/05/17 06:07:29;;;;;;;;;25.25;24.25;;;;;23.10;65.12;99872.56;4881899;29;8859;-68
2021/05/17 06:10:25;;;;;;;;;26.25;23.50;;;;;23.55;64.10;99864.28;4895941;29;8949;-68
2021/05/17 06:13:22;;;;;;;;;26.75;26.75;;;;;23.99;64.03;99862.78;4881080;29;8932;-68
2021/05/17 06:16:18;;;;;;;;;20.25;19.25;;;;;23.87;64.46;99855.03;4897389;29;8845;-68
2021/05/17 06:19:14;;;;;;;;;23.00;22.75;;;;;24.08;63.52;99865.81;4880432;29;8853;-68
2021/05/17 06:22:10;;;;;;;;;25.00;23.75;;;;;24.00;63.53;99867.22;4899583;29;8864;-68
2021/05/17 06:25:11;;;;;;;;;21.00;21.00;;;;;23.75;65.02;99879.13;4899773;29;8912;-67
2021/05/17 06:28:07;;;;;;;;;20.50;20.50;;;;;23.61;65.40;99878.66;4899666;29;8860;-66
2021/05/17 06:31:05;;;;;;;;;20.50;18.00;;;;;23.68;65.32;99895.44;4900234;29;8857;-68
2021/05/17 06:34:00;;;;;;;;;19.00;19.00;;;;;23.49;65.39;99888.59;4899486;29;9604;-67
2021/05/17 06:36:56;;;;;;;;;19.00;16.50;;;;;23.56;65.23;99886.41;4900625;29;8881;-68
2021/05/17 06:39:51;;;;;;;;;22.00;21.25;;;;;23.85;65.01;99892.19;4900189;29;8865;-68
2021/05/17 06:42:49;;;;;;;;;22.00;21.00;;;;;23.59;65.77;99899.63;4889379;29;9005;-68
2021/05/17 06:45:48;;;;;;;;;27.75;22.00;;;;;23.91;64.62;99888.81;4887041;29;8849;-69
2021/05/17 06:48:45;;;;;;;;;17.50;17.50;;;;;23.43;65.89;99896.78;4900937;29;8845;-68
2021/05/17 06:51:41;;;;;;;;;16.50;16.25;;;;;23.80;65.00;99889.09;4899254;29;8916;-67
2021/05/17 06:54:37;;;;;;;;;20.75;19.50;;;;;24.21;64.32;99890.47;4886730;29;9626;-68
2021/05/17 07:00:37;;;;;;;;;17.50;17.50;;;;;24.13;63.78;99896.31;4899053;29;8857;-68
2021/05/17 07:03:33;;;;;;;;;11.75;11.75;;;;;24.06;63.81;99893.66;4898342;29;8876;-67
2021/05/17 07:06:33;;;;;;;;;17.50;16.75;;;;;23.78;64.89;99888.75;4880120;29;8870;-69
2021/05/17 07:12:43;;;;;;;;;17.25;17.25;;;;;23.54;66.27;99905.81;4899362;29;8974;-68
2021/05/17 07:15:39;;;;;;;;;17.75;17.50;;;;;23.62;65.88;99898.00;4913523;29;8878;-72
2021/05/17 07:18:35;;;;;;;;;19.60;15.20;;;;;24.07;65.05;99898.06;4919463;29;8865;-71
2021/05/17 07:24:45;;;;;;;;;18.25;17.50;;;;;24.43;64.11;99904.88;4917468;29;8882;-69
2021/05/17 07:27:40;;;;;;;;;16.50;16.50;;;;;24.71;63.47;99889.97;4907815;29;8857;-70
2021/05/17 07:30:37;;;;;;;;;16.25;16.25;;;;;25.05;62.28;99900.72;4917430;29;8885;-70
2021/05/17 07:33:33;;;;;;;;;15.60;15.00;;;;;25.28;61.59;99893.19;4917904;29;8925;-71
2021/05/17 07:36:29;;;;;;;;;14.60;14.60;;;;;25.36;62.05;99886.03;4904438;29;8971;-70
2021/05/17 07:39:24;;;;;;;;;14.40;14.40;;;;;25.04;61.78;99895.50;4914773;29;8898;-69
2021/05/17 07:42:20;;;;;;;;;20.20;19.20;;;;;25.30;61.75;99902.78;4914158;29;8892;-69
2021/05/17 07:45:16;;;;;;;;;16.60;16.40;;;;;25.61;61.05;99897.41;4917230;29;8901;-69
2021/05/17 07:48:12;;;;;;;;;17.80;15.40;;;;;25.40;61.98;99896.03;4910795;29;8861;-67
2021/05/17 07:51:08;;;;;;;;;3.60;3.60;;;;;24.94;61.95;99894.56;4915915;29;8853;-67
2021/05/17 07:53:38;;;;;;;;;14.20;14.20;;;;;25.51;60.83;99895.69;4917887;29;8900;-67
2021/05/17 07:56:33;;;;;;;;;19.00;18.80;;;;;25.69;60.63;99893.09;4916918;29;8977;-67
2021/05/17 07:59:30;;;;;;;;;17.20;17.20;;;;;25.76;59.33;99892.91;4916695;29;9007;-68
2021/05/17 08:02:26;;;;;;;;;16.00;16.00;;;;;25.90;58.96;99888.78;4917008;29;8898;-68
2021/05/17 08:05:21;;;;;;;;;18.60;18.60;;;;;26.31;58.27;99896.31;4919141;29;8841;-67
2021/05/17 08:08:17;;;;;;;;;17.00;17.00;;;;;26.20;58.37;99895.06;4915304;29;8858;-68
2021/05/17 08:11:12;;;;;;;;;15.00;15.00;;;;;26.30;57.37;99897.56;4910032;29;8865;-67
2021/05/17 08:14:08;;;;;;;;;19.20;19.20;;;;;26.53;57.60;99907.72;4916812;29;8903;-68
2021/05/17 08:17:05;;;;;;;;;17.00;17.00;;;;;26.59;56.59;99897.34;4910056;29;8927;-68
2021/05/17 08:20:03;;;;;;;;;18.20;18.20;;;;;27.02;56.24;99915.66;4915610;29;8889;-68
2021/05/17 08:23:00;;;;;;;;;19.60;19.60;;;;;27.05;57.84;99909.06;4917248;29;8849;-69
2021/05/17 08:25:55;;;;;;;;;21.60;18.80;;;;;27.29;55.76;99915.03;4915547;29;8845;-69
2021/05/17 08:28:51;;;;;;;;;17.20;17.20;;;;;26.98;57.51;99912.13;4916697;29;8888;-69
2021/05/17 08:31:49;;;;;;;;;20.80;19.20;;;;;27.38;54.88;99912.28;4916976;29;9612;-68
2021/05/17 08:34:45;;;;;;;;;14.40;14.40;;;;;27.63;53.93;99922.63;4916943;29;8872;-71
2021/05/17 08:37:40;;;;;;;;;17.40;17.40;;;;;27.59;55.44;99916.28;4897827;29;8991;-68
2021/05/17 08:40:39;;;;;;;;;12.60;12.60;;;;;27.86;53.41;99924.19;4897835;29;8884;-68
2021/05/17 08:43:37;;;;;;;;;15.60;15.60;;;;;28.18;53.92;99920.00;4912420;29;8842;-69
2021/05/17 08:46:33;;;;;;;;;15.80;15.60;;;;;28.21;52.35;99923.94;4916713;29;8858;-68
2021/05/17 08:49:28;;;;;;;;;19.60;19.40;;;;;27.86;53.37;99923.38;4910838;29;8870;-67
2021/05/17 08:52:25;;;;;;;;;19.00;18.80;;;;;27.81;53.06;99921.94;4906554;29;8892;-68
2021/05/17 08:55:21;;;;;;;;;17.40;17.40;;;;;27.36;53.41;99926.13;4918316;29;8857;-68
2021/05/17 08:58:20;;;;;;;;;19.00;19.00;;;;;27.55;53.87;99914.88;4915837;29;8862;-67
2021/05/17 09:01:15;;;;;;;;;16.20;16.20;;;;;27.00;54.50;99920.22;4916554;29;9057;-68
2021/05/17 09:04:16;;;;;;;;;13.20;13.20;;;;;26.60;57.31;99910.28;4915782;29;8861;-68
2021/05/17 09:07:12;;;;;;;;;16.00;15.40;;;;;26.07;58.64;99917.78;4916271;29;8971;-68
2021/05/17 09:10:22;;;;;;;;;18.60;17.60;;;;;25.95;58.88;99922.22;4915654;29;8853;-67
2021/05/17 09:13:19;;;;;;;;;18.20;18.20;;;;;26.31;58.41;99918.19;4907323;29;8899;-68
2021/05/17 09:16:14;;;;;;;;;18.80;18.80;;;;;26.22;59.13;99927.38;4878770;29;8839;-68
2021/05/17 09:19:12;;;;;;;;;17.40;17.40;;;;;26.42;57.92;99934.84;4871114;29;9043;-68
2021/05/17 09:22:19;;;;;;;;;17.20;17.20;;;;;26.29;57.25;99944.13;4879099;29;8907;-68
2021/05/17 09:25:15;;;;;;;;;16.20;16.20;;;;;26.37;56.90;99947.50;4877970;29;8855;-67
2021/05/17 09:28:11;;;;;;;;;18.00;18.00;;;;;25.70;57.81;99954.13;4877910;29;8867;-68
2021/05/17 09:31:10;;;;;;;;;16.80;16.40;;;;;25.88;58.26;99966.97;4878096;29;8871;-68
2021/05/17 09:34:06;;;;;;;;;15.80;15.80;;;;;25.95;57.20;99983.72;4878037;29;8848;-67
2021/05/17 09:37:07;;;;;;;;;15.20;15.20;;;;;25.94;57.15;99988.59;4878051;29;8867;-67
2021/05/17 09:40:03;;;;;;;;;16.80;16.80;;;;;26.18;55.82;99994.72;4878695;29;8974;-66
2021/05/17 09:43:02;;;;;;;;;16.60;16.20;;;;;25.98;57.16;99999.81;4877945;29;8867;-68
2021/05/17 09:45:58;;;;;;;;;18.40;18.40;;;;;26.01;56.56;100007.41;4878521;29;8851;-68
2021/05/17 09:48:54;;;;;;;;;18.20;18.20;;;;;25.88;56.21;100010.25;4877818;29;9026;-68
2021/05/17 09:52:23;;;;;;;;;12.80;12.80;;;;;26.05;56.12;100003.22;4877847;29;8875;-69
2021/05/17 09:55:18;;;;;;;;;13.80;13.60;;;;;26.59;54.37;100016.44;4878496;29;8963;-69
2021/05/17 09:58:45;;;;;;;;;15.80;15.80;;;;;26.56;54.27;100022.25;4877722;29;8946;-68
2021/05/17 10:01:41;;;;;;;;;14.80;14.80;;;;;26.86;53.22;100015.13;4878616;29;8859;-69
2021/05/17 10:04:36;;;;;;;;;18.40;18.40;;;;;27.05;52.57;100025.41;4877838;29;8875;-70
2021/05/17 10:07:32;;;;;;;;;21.60;21.60;;;;;27.08;51.50;100027.34;4877724;29;8886;-69
2021/05/17 10:10:28;;;;;;;;;17.00;16.20;;;;;27.40;51.59;100029.00;4877688;29;8947;-69
2021/05/17 10:13:24;;;;;;;;;18.40;18.40;;;;;27.56;51.62;100021.53;4879048;29;8886;-69
2021/05/17 10:16:21;;;;;;;;;19.20;19.20;;;;;27.84;50.87;100017.63;4879136;29;8851;-69
2021/05/17 10:19:17;;;;;;;;;16.00;16.00;;;;;27.75;51.22;100026.06;4878548;29;8880;-69
2021/05/17 10:22:13;;;;;;;;;13.80;13.80;;;;;27.60;51.42;100030.69;4877657;29;8863;-69
2021/05/17 10:25:11;;;;;;;;;16.80;16.80;;;;;27.91;51.34;100034.38;4895302;29;8976;-69
2021/05/17 10:28:14;;;;;;;;;15.80;15.80;;;;;28.00;50.24;100022.28;4889679;29;8845;-70
2021/05/17 10:31:15;;;;;;;;;15.60;15.60;;;;;28.13;50.32;100016.47;4886849;29;9603;-69
2021/05/17 10:34:11;;;;;;;;;18.40;18.40;;;;;28.06;48.97;100028.13;4899609;29;8876;-71
2021/05/17 10:37:17;;;;;;;;;17.40;17.40;;;;;28.06;49.22;100025.28;4900917;29;8878;-70
2021/05/17 10:40:39;;;;;;;;;13.80;13.80;;;;;28.32;48.24;100029.53;4900942;29;8896;-69
2021/05/17 10:46:55;;;;;;;;;10.20;10.20;;;;;28.35;47.17;100028.56;4899472;29;8873;-68
2021/05/17 10:50:15;;;;;;;;;11.80;11.80;;;;;28.48;48.73;100026.41;4886545;29;8880;-68
2021/05/17 10:53:50;;;;;;;;;11.80;11.80;;;;;27.35;49.66;100025.94;4887970;29;8867;-67
2021/05/17 11:03:24;;;;;;;;;12.40;12.40;;;;;27.65;49.92;100024.41;4884042;29;8939;-68
2021/05/17 11:06:20;;;;;;;;;12.80;12.80;;;;;28.09;49.40;100033.66;4896393;29;8845;-69
2021/05/17 11:09:15;;;;;;;;;12.60;12.60;;;;;28.32;48.80;100023.84;4898274;29;8876;-68
2021/05/17 11:12:37;;;;;;;;;11.00;11.00;;;;;28.86;47.54;100032.94;4915980;29;8874;-68
2021/05/17 11:15:43;;;;;;;;;13.00;13.00;;;;;28.62;48.56;100044.94;4898443;29;8851;-70
2021/05/17 11:18:57;;;;;;;;;12.40;12.40;;;;;28.23;49.25;100047.31;4917379;29;8862;-69
2021/05/17 11:21:59;;;;;;;;;11.40;11.40;;;;;28.07;49.02;100052.47;4913458;29;8847;-70
2021/05/17 11:24:55;;;;;;;;;9.60;9.60;;;;;28.50;48.73;100049.47;4917540;29;8858;-69
2021/05/17 11:27:52;;;;;;;;;7.20;7.20;;;;;28.25;49.01;100050.47;4917406;29;8827;-69
2021/05/17 11:30:47;;;;;;;;;8.40;8.40;;;;;27.88;50.16;100057.25;4915110;29;9648;-71
2021/05/17 11:33:48;;;;;;;;;7.00;7.00;;;;;27.96;50.65;100067.06;4917252;29;8925;-69
2021/05/17 11:36:51;;;;;;;;;6.80;6.80;;;;;27.78;50.68;100059.25;4916589;29;8869;-70
2021/05/17 11:39:47;;;;;;;;;8.80;8.80;;;;;27.58;50.70;100053.09;4927586;29;8880;-70
2021/05/17 11:42:43;;;;;;;;;7.80;7.80;;;;;28.19;49.10;100072.25;4927955;29;8858;-69
2021/05/17 11:45:39;;;;;;;;;5.80;5.80;;;;;28.65;47.42;100075.28;4917041;29;8843;-71
2021/05/17 11:48:34;;;;;;;;;6.00;6.00;;;;;28.13;45.34;100087.53;4916768;29;8871;-68
2021/05/17 11:51:31;;;;;;;;;5.00;5.00;;;;;27.76;46.13;100078.81;4917182;29;8843;-70
2021/05/17 11:54:34;;;;;;;;;2.20;2.20;;;;;26.84;46.13;100095.03;4922889;29;8879;-69
2021/05/17 11:57:34;;;;;;;;;6.20;6.20;;;;;27.38;47.42;100090.34;4920899;29;8851;-70
2021/05/17 12:00:30;;;;;;;;;5.40;5.40;;;;;27.45;47.18;100090.06;4912672;29;8849;-68
2021/05/17 12:03:25;;;;;;;;;3.20;3.20;;;;;27.48;45.17;100096.88;4911814;29;8867;-68
2021/05/17 12:05:53;;;;;;;;;4.20;4.20;;;;;28.03;45.88;100094.41;4918056;29;8871;-68
2021/05/17 12:08:49;;;;;;;;;5.00;5.00;;;;;27.98;44.89;100096.59;4915860;29;8867;-67
2021/05/17 12:11:49;;;;;;;;;3.20;3.20;;;;;28.23;45.17;100112.69;4895431;29;8853;-68
2021/05/17 12:14:47;;;;;;;;;2.20;2.20;;;;;28.39;43.79;100123.06;4897745;29;8853;-68
2021/05/17 12:17:43;;;;;;;;;3.60;3.60;;;;;28.48;43.38;100102.41;4896900;29;9599;-66
2021/05/17 12:20:39;;;;;;;;;2.00;2.00;;;;;27.75;43.07;100099.94;4904019;29;8857;-70
2021/05/17 12:23:46;;;;;;;;;2.60;2.60;;;;;27.32;43.37;100120.56;4904807;29;8866;-69
2021/05/17 12:26:58;;;;;;;;;2.00;2.00;;;;;27.02;45.18;100125.63;4913053;29;8881;-70
2021/05/17 12:29:59;;;;;;;;;1.00;1.00;;;;;27.00;43.36;100116.00;4925063;29;9035;-70
2021/05/17 12:33:01;;;;;;;;;4.00;4.00;;;;;26.79;44.45;100081.41;4897236;29;8881;-70
2021/05/17 12:35:36;;;;;;;;;0.40;0.40;;;;;27.08;41.98;100057.75;4908824;29;8862;-69
2021/05/17 12:38:21;;;;;;;;;1.80;1.80;;;;;27.25;43.25;100081.88;4919563;29;8903;-70
2021/05/17 12:40:50;;;;;;;;;0.80;0.80;;;;;27.30;43.03;100125.91;4905626;29;8863;-69
2021/05/17 12:43:46;;;;;;;;;0.60;0.60;;;;;27.69;42.94;100135.88;4904701;29;8905;-71
2021/05/17 12:46:41;;;;;;;;;1.60;1.60;;;;;27.58;41.80;100141.91;4915062;29;8835;-69
2021/05/17 12:49:54;;;;;;;;;1.00;1.00;;;;;28.09;41.44;100130.31;4917689;29;8875;-71
2021/05/17 12:52:45;;;;;;;;;1.40;1.40;;;;;28.49;40.45;100147.44;4917042;29;8858;-71
2021/05/17 12:55:46;;;;;;;;;1.20;1.20;;;;;28.89;40.19;100143.78;4916344;29;8958;-69
2021/05/17 12:58:42;;;;;;;;;0.00;0.00;;;;;28.96;38.65;100134.97;4915660;29;8870;-70
2021/05/17 13:01:39;;;;;;;;;0.00;0.00;;;;;28.41;38.44;100133.97;4903348;29;8985;-72
2021/05/17 13:04:25;;;;;;;;;0.80;0.80;;;;;28.75;39.98;100132.97;4901119;29;8934;-72
2021/05/17 13:07:03;;;;;;;;;1.40;1.40;;;;;28.37;39.73;100150.38;4925449;29;8890;-72
2021/05/17 13:09:59;;;;;;;;;3.00;3.00;;;;;27.99;40.82;100142.88;4916095;29;8886;-70
2021/05/17 13:12:55;;;;;;;;;0.00;0.00;;;;;27.64;41.50;100136.44;4915658;29;9006;-71
2021/05/17 13:16:00;;;;;;;;;2.00;2.00;;;;;27.30;42.39;100154.31;4915724;29;8867;-72
2021/05/17 13:18:56;;;;;;;;;1.00;1.00;;;;;27.96;42.36;100141.75;4915742;29;8839;-68
2021/05/17 13:31:05;;;;;;;;;0.60;0.60;;;;;27.56;44.54;100133.06;4902400;29;8845;-69
2021/05/17 13:34:09;;;;;;;;;3.00;3.00;;;;;28.13;44.52;100130.94;4901077;29;8879;-68
2021/05/17 13:37:12;;;;;;;;;0.00;0.00;;;;;27.82;44.55;100135.81;4927114;29;8867;-69
2021/05/17 13:39:46;;;;;;;;;1.20;1.20;;;;;28.23;43.89;100118.38;4917784;29;9033;-69
2021/05/17 13:42:15;;;;;;;;;2.80;2.20;;;;;28.37;44.51;100122.75;4916577;29;8893;-69
2021/05/17 13:45:17;;;;;;;;;2.00;2.00;;;;;28.66;43.67;100113.81;4902799;29;8901;-68
2021/05/17 13:48:14;;;;;;;;;2.00;2.00;;;;;28.42;44.75;100124.19;4915331;29;8880;-68
2021/05/17 13:50:42;;;;;;;;;0.00;0.00;;;;;27.88;45.42;100125.44;4912873;29;9718;-68
2021/05/17 13:53:38;;;;;;;;;1.00;1.00;;;;;27.31;46.42;100133.19;4915141;29;8914;-68
2021/05/17 13:56:06;;;;;;;;;1.40;1.40;;;;;27.15;47.62;100123.56;4916595;29;8942;-68
2021/05/17 13:59:03;;;;;;;;;1.60;1.60;;;;;26.94;48.14;100117.81;4902328;29;8878;-68
2021/05/17 14:01:52;;;;;;;;;3.00;3.00;;;;;26.89;48.39;100119.16;4920088;29;8859;-69
2021/05/17 14:04:21;;;;;;;;;0.80;0.80;;;;;26.63;48.26;100126.94;4899961;29;8876;-68
2021/05/17 14:07:16;;;;;;;;;3.20;3.20;;;;;26.59;49.35;100123.41;4899923;29;8872;-68
2021/05/17 14:09:46;;;;;;;;;3.00;3.00;;;;;26.75;48.96;100117.59;4900816;29;8891;-68
2021/05/17 14:12:14;;;;;;;;;3.60;3.60;;;;;26.67;49.11;100115.44;4893362;29;8970;-68
2021/05/17 14:15:13;;;;;;;;;4.00;4.00;;;;;26.66;49.45;100117.50;4899677;29;8851;-69
2021/05/17 14:18:08;;;;;;;;;2.40;2.40;;;;;26.78;49.19;100107.41;4913989;29;8869;-69
2021/05/17 14:48:34;;;;;;;;;45.25;34.00;;;;;25.78;52.84;100108.47;4831429;29;9643;-77
2021/05/17 14:51:30;;;;;;;;;46.25;37.50;;;;;26.00;52.17;100108.63;4813141;29;8893;-76
2021/05/17 14:54:25;;;;;;;;;4.80;4.80;;;;;25.97;50.93;100111.53;4838772;29;8875;-77
2021/05/17 14:57:21;;;;;;;;;4.40;4.40;;;;;25.75;50.45;100108.53;4842104;29;8877;-77